createdAt,value
2023-02-15T00:00:57.014Z,0.00
2023-02-15T00:01:57.088Z,0.00
2023-02-15T00:02:57.049Z,0.00
2023-02-15T00:03:57.040Z,0.00
2023-02-15T00:04:57.047Z,0.00
2023-02-15T00:05:57.057Z,0.00
2023-02-15T00:06:57.063Z,0.00
2023-02-15T00:07:57.071Z,0.00
2023-02-15T00:08:57.077Z,0.00
2023-02-15T00:09:57.093Z,0.00
2023-02-15T00:10:57.095Z,0.00
2023-02-15T00:11:57.102Z,0.00
2023-02-15T00:12:57.109Z,0.00
2023-02-15T00:13:57.118Z,0.00
2023-02-15T00:14:57.126Z,0.00
2023-02-15T00:15:57.132Z,0.00
2023-02-15T00:16:57.143Z,0.00
2023-02-15T00:17:57.150Z,0.00
2023-02-15T00:18:57.163Z,0.00
2023-02-15T00:19:57.170Z,0.00
2023-02-15T00:20:57.187Z,0.00
2023-02-15T00:21:57.182Z,0.00
2023-02-15T00:22:57.192Z,0.00
2023-02-15T00:23:57.199Z,0.00
2023-02-15T00:24:57.205Z,0.00
2023-02-15T00:25:57.214Z,0.00
2023-02-15T00:26:57.224Z,0.00
2023-02-15T00:27:57.229Z,0.00
2023-02-15T00:28:57.236Z,0.00
2023-02-15T00:29:57.264Z,0.00
2023-02-15T00:30:57.285Z,0.00
2023-02-15T00:31:57.263Z,0.00
2023-02-15T00:32:57.270Z,0.00
2023-02-15T00:33:57.277Z,0.00
2023-02-15T00:34:57.287Z,0.00
2023-02-15T00:35:57.293Z,0.00
2023-02-15T00:36:57.302Z,0.00
2023-02-15T00:37:57.312Z,0.00
2023-02-15T00:38:57.324Z,0.00
2023-02-15T00:39:57.327Z,0.00
2023-02-15T00:40:57.333Z,0.00
2023-02-15T00:41:57.347Z,0.00
2023-02-15T00:42:57.349Z,0.00
2023-02-15T00:43:57.355Z,0.00
2023-02-15T00:44:57.370Z,0.00
2023-02-15T00:45:57.389Z,0.00
2023-02-15T00:46:57.393Z,0.00
2023-02-15T00:47:57.389Z,0.00
2023-02-15T00:48:57.397Z,0.00
2023-02-15T00:49:57.404Z,0.00
2023-02-15T00:50:57.416Z,0.00
2023-02-15T00:51:57.420Z,0.00
2023-02-15T00:52:57.438Z,0.00
2023-02-15T00:53:57.440Z,0.00
2023-02-15T00:54:57.441Z,0.00
2023-02-15T00:55:57.452Z,0.00
2023-02-15T00:56:57.458Z,0.00
2023-02-15T00:57:57.468Z,0.00
2023-02-15T00:58:57.473Z,0.00
2023-02-15T00:59:57.482Z,0.00
2023-02-15T01:00:57.489Z,0.00
2023-02-15T01:01:57.500Z,0.00
2023-02-15T01:02:57.505Z,0.00
2023-02-15T01:03:57.529Z,0.00
2023-02-15T01:04:57.522Z,0.00
2023-02-15T01:05:57.526Z,0.00
2023-02-15T01:06:57.537Z,0.00
2023-02-15T01:07:57.548Z,0.00
2023-02-15T01:08:57.552Z,0.00
2023-02-15T01:09:57.559Z,0.00
2023-02-15T01:10:57.567Z,0.00
2023-02-15T01:11:57.576Z,0.00
2023-02-15T01:12:57.582Z,0.00
2023-02-15T01:13:57.611Z,0.00
2023-02-15T01:14:57.599Z,0.00
2023-02-15T01:15:57.612Z,0.00
2023-02-15T01:16:57.614Z,0.00
2023-02-15T01:17:57.626Z,0.00
2023-02-15T01:18:57.629Z,0.00
2023-02-15T01:19:57.637Z,0.00
2023-02-15T01:20:57.654Z,0.00
2023-02-15T01:21:57.654Z,0.00
2023-02-15T01:22:57.679Z,0.00
2023-02-15T01:23:57.685Z,0.00
2023-02-15T01:24:57.680Z,0.00
2023-02-15T01:25:57.684Z,0.00
2023-02-15T01:26:57.691Z,0.00
2023-02-15T01:27:57.700Z,0.00
2023-02-15T01:28:57.706Z,0.00
2023-02-15T01:29:57.741Z,0.00
2023-02-15T01:30:57.830Z,0.00
2023-02-15T01:31:57.862Z,0.00
2023-02-15T01:32:57.738Z,0.00
2023-02-15T01:33:57.749Z,0.00
2023-02-15T01:34:57.754Z,0.00
2023-02-15T01:35:57.758Z,0.00
2023-02-15T01:36:57.766Z,0.00
2023-02-15T01:37:57.776Z,0.00
2023-02-15T01:38:57.782Z,0.00
2023-02-15T01:39:57.792Z,0.00
2023-02-15T01:40:57.797Z,0.00
2023-02-15T01:41:57.809Z,0.00
2023-02-15T01:42:57.822Z,0.00
2023-02-15T01:43:57.837Z,0.00
2023-02-15T01:44:57.827Z,0.00
2023-02-15T01:45:57.857Z,0.00
2023-02-15T01:46:57.846Z,0.00
2023-02-15T01:47:57.850Z,0.00
2023-02-15T01:48:57.863Z,0.00
2023-02-15T01:49:57.864Z,0.00
2023-02-15T01:50:57.885Z,0.00
2023-02-15T01:51:57.877Z,0.00
2023-02-15T01:52:57.885Z,0.00
2023-02-15T01:53:57.899Z,0.00
2023-02-15T01:54:57.899Z,0.00
2023-02-15T01:55:57.906Z,0.00
2023-02-15T01:56:57.913Z,0.00
2023-02-15T01:57:57.921Z,0.00
2023-02-15T01:58:57.931Z,0.00
2023-02-15T01:59:57.935Z,0.00
2023-02-15T02:00:59.102Z,0.00
2023-02-15T02:01:57.949Z,0.00
2023-02-15T02:02:58.013Z,0.00
2023-02-15T02:03:57.969Z,0.00
2023-02-15T02:04:57.976Z,0.00
2023-02-15T02:05:57.999Z,0.00
2023-02-15T02:06:57.991Z,0.00
2023-02-15T02:07:57.999Z,0.00
2023-02-15T02:08:58.002Z,0.00
2023-02-15T02:09:58.009Z,0.00
2023-02-15T02:10:58.024Z,0.00
2023-02-15T02:11:58.026Z,0.00
2023-02-15T02:12:58.045Z,0.00
2023-02-15T02:13:58.044Z,0.00
2023-02-15T02:14:58.047Z,0.00
2023-02-15T02:15:58.096Z,0.00
2023-02-15T02:16:58.068Z,0.00
2023-02-15T02:17:58.070Z,0.00
2023-02-15T02:18:58.078Z,0.00
2023-02-15T02:19:58.091Z,0.00
2023-02-15T02:20:58.089Z,0.00
2023-02-15T02:21:58.096Z,0.00
2023-02-15T02:22:58.109Z,0.00
2023-02-15T02:23:58.111Z,0.00
2023-02-15T02:24:58.116Z,0.00
2023-02-15T02:25:58.147Z,0.00
2023-02-15T02:26:58.139Z,0.00
2023-02-15T02:27:58.149Z,0.00
2023-02-15T02:28:58.144Z,0.00
2023-02-15T02:29:58.196Z,0.00
2023-02-15T02:30:58.262Z,0.00
2023-02-15T02:31:58.209Z,0.00
2023-02-15T02:32:58.173Z,0.00
2023-02-15T02:33:58.192Z,0.00
2023-02-15T02:34:58.195Z,0.00
2023-02-15T02:35:58.201Z,0.00
2023-02-15T02:36:58.202Z,0.00
2023-02-15T02:37:58.209Z,0.00
2023-02-15T02:38:58.221Z,0.00
2023-02-15T02:39:58.224Z,0.00
2023-02-15T02:40:58.229Z,0.00
2023-02-15T02:41:58.240Z,0.00
2023-02-15T02:42:58.255Z,0.00
2023-02-15T02:43:58.253Z,0.00
2023-02-15T02:44:58.259Z,0.00
2023-02-15T02:45:58.266Z,0.00
2023-02-15T02:46:58.275Z,0.00
2023-02-15T02:47:58.281Z,0.00
2023-02-15T02:48:58.294Z,0.00
2023-02-15T02:49:58.294Z,0.00
2023-02-15T02:50:58.310Z,0.00
2023-02-15T02:51:58.314Z,0.00
2023-02-15T02:52:58.324Z,0.00
2023-02-15T02:53:58.322Z,0.00
2023-02-15T02:54:58.328Z,0.00
2023-02-15T02:55:58.339Z,0.00
2023-02-15T02:56:58.346Z,0.00
2023-02-15T02:57:58.359Z,0.00
2023-02-15T02:58:58.359Z,0.00
2023-02-15T02:59:58.365Z,0.00
2023-02-15T03:00:58.373Z,0.00
2023-02-15T03:01:58.430Z,0.00
2023-02-15T03:02:58.430Z,0.00
2023-02-15T03:03:58.396Z,0.00
2023-02-15T03:04:58.403Z,0.00
2023-02-15T03:05:58.415Z,0.00
2023-02-15T03:06:58.429Z,0.00
2023-02-15T03:07:58.424Z,0.00
2023-02-15T03:08:58.434Z,0.00
2023-02-15T03:09:58.448Z,0.00
2023-02-15T03:10:58.447Z,0.00
2023-02-15T03:11:58.457Z,0.00
2023-02-15T03:12:58.461Z,0.00
2023-02-15T03:13:58.473Z,0.00
2023-02-15T03:14:58.475Z,0.00
2023-02-15T03:15:58.538Z,0.00
2023-02-15T03:16:58.492Z,0.00
2023-02-15T03:17:58.498Z,0.00
2023-02-15T03:18:58.508Z,0.00
2023-02-15T03:19:58.512Z,0.00
2023-02-15T03:20:58.526Z,0.00
2023-02-15T03:21:58.642Z,0.00
2023-02-15T03:22:58.537Z,0.00
2023-02-15T03:23:58.544Z,0.00
2023-02-15T03:24:58.551Z,0.00
2023-02-15T03:25:58.561Z,0.00
2023-02-15T03:26:58.564Z,0.00
2023-02-15T03:27:58.569Z,0.00
2023-02-15T03:28:58.577Z,0.00
2023-02-15T03:29:58.608Z,0.00
2023-02-15T03:30:58.658Z,0.00
2023-02-15T03:31:58.713Z,0.00
2023-02-15T03:32:58.609Z,0.00
2023-02-15T03:33:58.612Z,0.00
2023-02-15T03:34:58.622Z,0.00
2023-02-15T03:35:58.647Z,0.00
2023-02-15T03:36:58.634Z,0.00
2023-02-15T03:37:58.642Z,0.00
2023-02-15T03:38:58.654Z,0.00
2023-02-15T03:39:58.658Z,0.00
2023-02-15T03:40:58.662Z,0.00
2023-02-15T03:41:58.673Z,0.00
2023-02-15T03:42:58.677Z,0.00
2023-02-15T03:43:58.694Z,0.00
2023-02-15T03:44:58.696Z,0.00
2023-02-15T03:45:58.712Z,0.00
2023-02-15T03:46:58.790Z,0.00
2023-02-15T03:47:58.713Z,0.00
2023-02-15T03:48:58.727Z,0.00
2023-02-15T03:49:58.725Z,0.00
2023-02-15T03:50:58.739Z,0.00
2023-02-15T03:51:58.741Z,0.00
2023-02-15T03:52:58.746Z,0.00
2023-02-15T03:53:58.756Z,0.00
2023-02-15T03:54:58.764Z,0.00
2023-02-15T03:55:58.771Z,0.00
2023-02-15T03:56:58.774Z,0.00
2023-02-15T03:57:58.781Z,0.00
2023-02-15T03:58:58.791Z,0.00
2023-02-15T03:59:58.794Z,0.00
2023-02-15T04:00:58.837Z,0.00
2023-02-15T04:01:58.817Z,0.00
2023-02-15T04:02:58.843Z,0.00
2023-02-15T04:03:58.825Z,0.00
2023-02-15T04:04:58.831Z,0.00
2023-02-15T04:05:59.027Z,0.00
2023-02-15T04:06:58.846Z,0.00
2023-02-15T04:07:58.850Z,0.00
2023-02-15T04:08:58.865Z,0.00
2023-02-15T04:09:58.872Z,0.00
2023-02-15T04:10:58.875Z,0.00
2023-02-15T04:11:58.878Z,0.00
2023-02-15T04:12:58.886Z,0.00
2023-02-15T04:13:58.892Z,0.00
2023-02-15T04:14:58.906Z,0.00
2023-02-15T04:15:59.094Z,0.00
2023-02-15T04:16:58.913Z,0.00
2023-02-15T04:17:58.920Z,0.00
2023-02-15T04:18:58.930Z,0.00
2023-02-15T04:19:58.938Z,0.00
2023-02-15T04:20:58.938Z,0.00
2023-02-15T04:21:58.943Z,0.00
2023-02-15T04:22:58.949Z,0.00
2023-02-15T04:23:58.957Z,0.00
2023-02-15T04:24:58.964Z,0.00
2023-02-15T04:25:59.052Z,0.00
2023-02-15T04:26:58.977Z,0.00
2023-02-15T04:27:58.982Z,0.00
2023-02-15T04:28:58.992Z,0.00
2023-02-15T04:29:59.029Z,0.00
2023-02-15T04:30:59.047Z,0.00
2023-02-15T04:31:59.084Z,0.00
2023-02-15T04:32:59.018Z,0.00
2023-02-15T04:33:59.024Z,0.00
2023-02-15T04:34:59.036Z,0.00
2023-02-15T04:35:59.308Z,0.00
2023-02-15T04:36:59.042Z,0.00
2023-02-15T04:37:59.049Z,0.00
2023-02-15T04:38:59.064Z,0.00
2023-02-15T04:39:59.068Z,0.00
2023-02-15T04:40:59.069Z,0.00
2023-02-15T04:41:59.078Z,0.00
2023-02-15T04:42:59.087Z,0.00
2023-02-15T04:43:59.088Z,0.00
2023-02-15T04:44:59.098Z,0.00
2023-02-15T04:45:59.174Z,0.00
2023-02-15T04:46:59.111Z,0.00
2023-02-15T04:47:59.115Z,0.00
2023-02-15T04:48:59.121Z,0.00
2023-02-15T04:49:59.134Z,0.00
2023-02-15T04:50:59.137Z,0.00
2023-02-15T04:51:59.144Z,0.00
2023-02-15T04:52:59.152Z,0.00
2023-02-15T04:53:59.156Z,0.00
2023-02-15T04:54:59.170Z,0.00
2023-02-15T04:55:59.275Z,0.00
2023-02-15T04:56:59.177Z,0.00
2023-02-15T04:57:59.188Z,0.00
2023-02-15T04:58:59.193Z,0.00
2023-02-15T04:59:59.198Z,0.00
2023-02-15T05:00:59.241Z,0.00
2023-02-15T05:01:59.220Z,0.00
2023-02-15T05:02:59.222Z,0.00
2023-02-15T05:03:59.297Z,0.00
2023-02-15T05:04:59.237Z,0.00
2023-02-15T05:05:59.421Z,0.00
2023-02-15T05:06:59.253Z,0.00
2023-02-15T05:07:59.272Z,0.00
2023-02-15T05:08:59.262Z,0.00
2023-02-15T05:09:59.265Z,0.00
2023-02-15T05:10:59.276Z,0.00
2023-02-15T05:11:59.282Z,0.00
2023-02-15T05:12:59.285Z,0.00
2023-02-15T05:13:59.302Z,0.00
2023-02-15T05:14:59.306Z,0.00
2023-02-15T05:15:59.425Z,0.00
2023-02-15T05:16:59.310Z,0.00
2023-02-15T05:17:59.315Z,0.00
2023-02-15T05:18:59.336Z,0.00
2023-02-15T05:19:59.332Z,0.00
2023-02-15T05:20:59.335Z,0.00
2023-02-15T05:21:59.342Z,0.00
2023-02-15T05:22:59.355Z,0.00
2023-02-15T05:23:59.362Z,0.00
2023-02-15T05:24:59.365Z,0.00
2023-02-15T05:25:59.686Z,0.00
2023-02-15T05:26:59.378Z,0.00
2023-02-15T05:27:59.386Z,0.00
2023-02-15T05:28:59.390Z,0.00
2023-02-15T05:29:59.480Z,0.00
2023-02-15T05:30:59.659Z,0.00
2023-02-15T05:31:59.534Z,0.00
2023-02-15T05:32:59.420Z,0.00
2023-02-15T05:33:59.427Z,0.00
2023-02-15T05:34:59.435Z,0.00
2023-02-15T05:36:00.106Z,0.00
2023-02-15T05:36:59.449Z,0.00
2023-02-15T05:37:59.453Z,0.00
2023-02-15T05:38:59.465Z,0.00
2023-02-15T05:39:59.468Z,0.00
2023-02-15T05:40:59.484Z,0.00
2023-02-15T05:41:59.484Z,0.00
2023-02-15T05:42:59.488Z,0.00
2023-02-15T05:43:59.496Z,0.00
2023-02-15T05:44:59.505Z,0.00
2023-02-15T05:45:59.615Z,4.00
2023-02-15T05:46:59.514Z,4.00
2023-02-15T05:47:59.542Z,0.00
2023-02-15T05:48:59.530Z,0.00
2023-02-15T05:49:59.536Z,4.00
2023-02-15T05:50:59.543Z,0.00
2023-02-15T05:51:59.551Z,4.00
2023-02-15T05:52:59.557Z,4.00
2023-02-15T05:53:59.565Z,4.00
2023-02-15T05:54:59.571Z,4.00
2023-02-15T05:56:00.042Z,8.00
2023-02-15T05:56:59.588Z,8.00
2023-02-15T05:57:59.596Z,8.00
2023-02-15T05:58:59.599Z,8.00
2023-02-15T05:59:59.606Z,12.00
2023-02-15T06:00:59.614Z,16.00
2023-02-15T06:01:59.644Z,20.00
2023-02-15T06:02:59.627Z,20.00
2023-02-15T06:03:59.641Z,24.00
2023-02-15T06:04:59.643Z,28.00
2023-02-15T06:05:59.709Z,32.00
2023-02-15T06:06:59.656Z,36.00
2023-02-15T06:07:59.662Z,40.00
2023-02-15T06:08:59.671Z,48.00
2023-02-15T06:09:59.678Z,56.00
2023-02-15T06:10:59.685Z,64.00
2023-02-15T06:11:59.693Z,76.00
2023-02-15T06:12:59.698Z,84.00
2023-02-15T06:13:59.705Z,96.00
2023-02-15T06:14:59.716Z,108.00
2023-02-15T06:16:00.010Z,120.00
2023-02-15T06:16:59.737Z,136.00
2023-02-15T06:17:59.738Z,152.00
2023-02-15T06:18:59.742Z,168.00
2023-02-15T06:19:59.752Z,180.00
2023-02-15T06:20:59.762Z,196.00
2023-02-15T06:21:59.765Z,220.00
2023-02-15T06:22:59.777Z,244.00
2023-02-15T06:23:59.781Z,260.00
2023-02-15T06:24:59.787Z,280.00
2023-02-15T06:25:59.874Z,300.00
2023-02-15T06:26:59.803Z,320.00
2023-02-15T06:27:59.821Z,344.00
2023-02-15T06:28:59.836Z,364.00
2023-02-15T06:29:59.914Z,392.00
2023-02-15T06:30:59.954Z,424.00
2023-02-15T06:31:59.930Z,448.00
2023-02-15T06:32:59.844Z,484.00
2023-02-15T06:33:59.853Z,508.00
2023-02-15T06:34:59.891Z,548.00
2023-02-15T06:36:00.147Z,580.00
2023-02-15T06:36:59.884Z,604.00
2023-02-15T06:37:59.883Z,636.00
2023-02-15T06:38:59.892Z,668.00
2023-02-15T06:40:01.448Z,724.00
2023-02-15T06:40:59.902Z,748.00
2023-02-15T06:41:59.910Z,784.00
2023-02-15T06:42:59.915Z,816.00
2023-02-15T06:43:59.929Z,856.00
2023-02-15T06:44:59.931Z,908.00
2023-02-15T06:46:00.386Z,952.00
2023-02-15T06:46:59.945Z,972.00
2023-02-15T06:47:59.954Z,1024.00
2023-02-15T06:48:59.962Z,1072.00
2023-02-15T06:49:59.974Z,1136.00
2023-02-15T06:50:59.976Z,1152.00
2023-02-15T06:51:59.998Z,1156.00
2023-02-15T06:53:00.001Z,1240.00
2023-02-15T06:54:00.000Z,1276.00
2023-02-15T06:55:00.016Z,1304.00
2023-02-15T06:56:00.351Z,1360.00
2023-02-15T06:57:00.025Z,1424.00
2023-02-15T06:58:00.033Z,1416.00
2023-02-15T06:59:00.036Z,1516.00
2023-02-15T07:00:00.055Z,1624.00
2023-02-15T07:01:00.055Z,1656.00
2023-02-15T07:02:00.059Z,1644.00
2023-02-15T07:03:00.086Z,1704.00
2023-02-15T07:04:00.107Z,1828.00
2023-02-15T07:05:00.181Z,1852.00
2023-02-15T07:06:00.388Z,1912.00
2023-02-15T07:07:00.114Z,1908.00
2023-02-15T07:08:00.132Z,1908.00
2023-02-15T07:09:00.112Z,2040.00
2023-02-15T07:10:00.158Z,2100.00
2023-02-15T07:11:00.124Z,2192.00
2023-02-15T07:12:00.152Z,2168.00
2023-02-15T07:13:00.140Z,2288.00
2023-02-15T07:14:00.144Z,2376.00
2023-02-15T07:15:00.173Z,2360.00
2023-02-15T07:16:00.360Z,2512.00
2023-02-15T07:17:00.166Z,2644.00
2023-02-15T07:18:00.187Z,2636.00
2023-02-15T07:19:00.180Z,2708.00
2023-02-15T07:20:00.190Z,2816.00
2023-02-15T07:21:00.194Z,2988.00
2023-02-15T07:22:00.203Z,2940.00
2023-02-15T07:23:00.213Z,2936.00
2023-02-15T07:24:00.217Z,3012.00
2023-02-15T07:25:00.224Z,3036.00
2023-02-15T07:26:00.493Z,3128.00
2023-02-15T07:27:00.243Z,3092.00
2023-02-15T07:28:00.250Z,3228.00
2023-02-15T07:29:00.256Z,3280.00
2023-02-15T07:30:00.324Z,3216.00
2023-02-15T07:31:00.319Z,3380.00
2023-02-15T07:32:00.322Z,3492.00
2023-02-15T07:33:00.608Z,3436.00
2023-02-15T07:34:00.302Z,3492.00
2023-02-15T07:35:00.318Z,3524.00
2023-02-15T07:36:00.499Z,3508.00
2023-02-15T07:37:00.323Z,3440.00
2023-02-15T07:38:00.331Z,3588.00
2023-02-15T07:39:00.347Z,3584.00
2023-02-15T07:40:00.341Z,3544.00
2023-02-15T07:41:00.352Z,3620.00
2023-02-15T07:42:00.359Z,3920.00
2023-02-15T07:43:00.501Z,3592.00
2023-02-15T07:44:00.394Z,3964.00
2023-02-15T07:45:00.382Z,3816.00
2023-02-15T07:46:00.728Z,3900.00
2023-02-15T07:47:00.403Z,3636.00
2023-02-15T07:48:00.409Z,3876.00
2023-02-15T07:49:00.415Z,4064.00
2023-02-15T07:50:00.424Z,3920.00
2023-02-15T07:51:00.434Z,3844.00
2023-02-15T07:52:00.443Z,3888.00
2023-02-15T07:53:00.449Z,4036.00
2023-02-15T07:54:00.466Z,4232.00
2023-02-15T07:55:00.467Z,4300.00
2023-02-15T07:56:00.725Z,4276.00
2023-02-15T07:57:00.483Z,4556.00
2023-02-15T07:58:00.489Z,4816.00
2023-02-15T07:59:00.497Z,4864.00
2023-02-15T08:00:00.518Z,5008.00
2023-02-15T08:01:00.512Z,4988.00
2023-02-15T08:02:00.523Z,4752.00
2023-02-15T08:03:00.701Z,4804.00
2023-02-15T08:04:00.633Z,5116.00
2023-02-15T08:05:00.554Z,5324.00
2023-02-15T08:06:00.870Z,5492.00
2023-02-15T08:07:00.565Z,5812.00
2023-02-15T08:08:00.580Z,5896.00
2023-02-15T08:09:00.581Z,5900.00
2023-02-15T08:10:00.599Z,6040.00
2023-02-15T08:11:00.612Z,6436.00
2023-02-15T08:12:00.606Z,6408.00
2023-02-15T08:13:00.616Z,6424.00
2023-02-15T08:14:00.623Z,6292.00
2023-02-15T08:15:00.636Z,6316.00
2023-02-15T08:16:00.963Z,6972.00
2023-02-15T08:17:00.663Z,6192.00
2023-02-15T08:18:00.659Z,6324.00
2023-02-15T08:19:00.669Z,6508.00
2023-02-15T08:20:00.683Z,6320.00
2023-02-15T08:21:00.688Z,6192.00
2023-02-15T08:22:00.717Z,6748.00
2023-02-15T08:23:00.704Z,6692.00
2023-02-15T08:24:00.712Z,7220.00
2023-02-15T08:25:00.728Z,7300.00
2023-02-15T08:26:01.076Z,6892.00
2023-02-15T08:27:00.744Z,7580.00
2023-02-15T08:28:00.750Z,7168.00
2023-02-15T08:29:00.761Z,7396.00
2023-02-15T08:30:00.858Z,7172.00
2023-02-15T08:31:01.083Z,7708.00
2023-02-15T08:32:00.802Z,7244.00
2023-02-15T08:33:00.796Z,7432.00
2023-02-15T08:34:00.814Z,6908.00
2023-02-15T08:35:00.812Z,7596.00
2023-02-15T08:36:00.824Z,6844.00
2023-02-15T08:37:00.836Z,7504.00
2023-02-15T08:38:00.835Z,7956.00
2023-02-15T08:39:00.870Z,7800.00
2023-02-15T08:40:00.853Z,8032.00
2023-02-15T08:41:01.159Z,7828.00
2023-02-15T08:42:00.871Z,8212.00
2023-02-15T08:43:00.880Z,8760.00
2023-02-15T08:44:00.892Z,8488.00
2023-02-15T08:45:00.900Z,8232.00
2023-02-15T08:46:00.976Z,8540.00
2023-02-15T08:47:00.914Z,8684.00
2023-02-15T08:48:00.926Z,9016.00
2023-02-15T08:49:00.933Z,8648.00
2023-02-15T08:50:00.958Z,9460.00
2023-02-15T08:51:01.153Z,8808.00
2023-02-15T08:52:00.981Z,8928.00
2023-02-15T08:53:00.966Z,9540.00
2023-02-15T08:54:01.001Z,8852.00
2023-02-15T08:55:00.983Z,9616.00
2023-02-15T08:56:00.993Z,8880.00
2023-02-15T08:57:01.015Z,8148.00
2023-02-15T08:58:01.012Z,9680.00
2023-02-15T08:59:01.036Z,8516.00
2023-02-15T09:00:01.025Z,9176.00
2023-02-15T09:01:01.420Z,9416.00
2023-02-15T09:02:01.076Z,9116.00
2023-02-15T09:03:01.057Z,9612.00
2023-02-15T09:04:01.070Z,9964.00
2023-02-15T09:05:01.074Z,10532.00
2023-02-15T09:06:01.093Z,9428.00
2023-02-15T09:07:01.098Z,10756.00
2023-02-15T09:08:01.103Z,9700.00
2023-02-15T09:09:01.111Z,10328.00
2023-02-15T09:10:01.125Z,9112.00
2023-02-15T09:11:01.369Z,10248.00
2023-02-15T09:12:01.141Z,10196.00
2023-02-15T09:13:01.151Z,8980.00
2023-02-15T09:14:01.164Z,10192.00
2023-02-15T09:15:01.179Z,10116.00
2023-02-15T09:16:01.189Z,10744.00
2023-02-15T09:17:01.190Z,11212.00
2023-02-15T09:18:01.198Z,8692.00
2023-02-15T09:19:01.206Z,10900.00
2023-02-15T09:20:01.216Z,10336.00
2023-02-15T09:21:01.440Z,10528.00
2023-02-15T09:22:01.244Z,10988.00
2023-02-15T09:23:01.248Z,11160.00
2023-02-15T09:24:01.258Z,10704.00
2023-02-15T09:25:01.270Z,9716.00
2023-02-15T09:26:01.271Z,10080.00
2023-02-15T09:27:01.281Z,10940.00
2023-02-15T09:28:01.295Z,9812.00
2023-02-15T09:29:01.300Z,10432.00
2023-02-15T09:30:01.375Z,11428.00
2023-02-15T09:31:01.551Z,11204.00
2023-02-15T09:32:01.398Z,10712.00
2023-02-15T09:33:01.340Z,9668.00
2023-02-15T09:34:01.349Z,11824.00
2023-02-15T09:35:01.359Z,10316.00
2023-02-15T09:36:01.371Z,10664.00
2023-02-15T09:37:01.382Z,10652.00
2023-02-15T09:38:01.395Z,10620.00
2023-02-15T09:39:01.398Z,12096.00
2023-02-15T09:40:01.427Z,10436.00
2023-02-15T09:41:01.727Z,13116.00
2023-02-15T09:42:01.435Z,11532.00
2023-02-15T09:43:01.437Z,11184.00
2023-02-15T09:44:01.448Z,12056.00
2023-02-15T09:45:01.459Z,11932.00
2023-02-15T09:46:01.506Z,11440.00
2023-02-15T09:47:01.478Z,10764.00
2023-02-15T09:48:01.491Z,11048.00
2023-02-15T09:49:01.498Z,11540.00
2023-02-15T09:50:01.516Z,11792.00
2023-02-15T09:51:01.793Z,11432.00
2023-02-15T09:52:01.530Z,12492.00
2023-02-15T09:53:01.543Z,12912.00
2023-02-15T09:54:01.558Z,11664.00
2023-02-15T09:55:01.567Z,11844.00
2023-02-15T09:56:01.581Z,11700.00
2023-02-15T09:57:01.597Z,11788.00
2023-02-15T09:58:01.595Z,12008.00
2023-02-15T09:59:01.606Z,11972.00
2023-02-15T10:00:01.617Z,12948.00
2023-02-15T10:01:01.938Z,13888.00
2023-02-15T10:02:01.641Z,13196.00
2023-02-15T10:03:01.650Z,11416.00
2023-02-15T10:04:01.661Z,11384.00
2023-02-15T10:05:01.694Z,12484.00
2023-02-15T10:06:01.693Z,11244.00
2023-02-15T10:07:01.689Z,11924.00
2023-02-15T10:08:01.705Z,12096.00
2023-02-15T10:09:01.713Z,12320.00
2023-02-15T10:10:01.944Z,12876.00
2023-02-15T10:11:01.931Z,13780.00
2023-02-15T10:12:01.763Z,14584.00
2023-02-15T10:13:01.761Z,15120.00
2023-02-15T10:14:01.763Z,14196.00
2023-02-15T10:15:01.796Z,13988.00
2023-02-15T10:16:01.787Z,12152.00
2023-02-15T10:17:01.843Z,13140.00
2023-02-15T10:18:01.807Z,12784.00
2023-02-15T10:19:01.827Z,14488.00
2023-02-15T10:20:01.835Z,13160.00
2023-02-15T10:21:02.081Z,14256.00
2023-02-15T10:22:01.851Z,12836.00
2023-02-15T10:23:01.862Z,13728.00
2023-02-15T10:24:01.872Z,13592.00
2023-02-15T10:25:01.896Z,12804.00
2023-02-15T10:26:02.142Z,13704.00
2023-02-15T10:27:01.908Z,13132.00
2023-02-15T10:28:01.932Z,14336.00
2023-02-15T10:29:01.934Z,14968.00
2023-02-15T10:30:02.049Z,13300.00
2023-02-15T10:31:02.164Z,13184.00
2023-02-15T10:32:02.135Z,12704.00
2023-02-15T10:33:01.972Z,12256.00
2023-02-15T10:34:01.986Z,13008.00
2023-02-15T10:35:01.993Z,12752.00
2023-02-15T10:36:02.017Z,13748.00
2023-02-15T10:37:02.020Z,10804.00
2023-02-15T10:38:02.030Z,10712.00
2023-02-15T10:39:02.042Z,13344.00
2023-02-15T10:40:02.051Z,12220.00
2023-02-15T10:41:02.222Z,11668.00
2023-02-15T10:42:02.231Z,11816.00
2023-02-15T10:43:02.089Z,10328.00
2023-02-15T10:44:02.103Z,9160.00
2023-02-15T10:45:02.126Z,8212.00
2023-02-15T10:46:02.187Z,6860.00
2023-02-15T10:47:02.148Z,6392.00
2023-02-15T10:48:02.150Z,5664.00
2023-02-15T10:49:02.159Z,5824.00
2023-02-15T10:50:02.171Z,6200.00
2023-02-15T10:51:02.476Z,6296.00
2023-02-15T10:52:02.200Z,7568.00
2023-02-15T10:53:02.213Z,7816.00
2023-02-15T10:54:02.226Z,6044.00
2023-02-15T10:55:02.253Z,6696.00
2023-02-15T10:56:02.244Z,5608.00
2023-02-15T10:57:02.278Z,6068.00
2023-02-15T10:58:02.275Z,5788.00
2023-02-15T10:59:02.285Z,6168.00
2023-02-15T11:00:02.296Z,6088.00
2023-02-15T11:01:02.598Z,5860.00
2023-02-15T11:02:02.336Z,5636.00
2023-02-15T11:03:02.322Z,5368.00
2023-02-15T11:04:02.350Z,5288.00
2023-02-15T11:05:02.438Z,5208.00
2023-02-15T11:06:02.357Z,5180.00
2023-02-15T11:07:02.369Z,5184.00
2023-02-15T11:08:02.388Z,5064.00
2023-02-15T11:09:02.387Z,4972.00
2023-02-15T11:10:02.404Z,4952.00
2023-02-15T11:11:02.653Z,4928.00
2023-02-15T11:12:02.423Z,4944.00
2023-02-15T11:13:02.434Z,4844.00
2023-02-15T11:14:02.442Z,4872.00
2023-02-15T11:15:02.457Z,4940.00
2023-02-15T11:16:02.527Z,4916.00
2023-02-15T11:17:02.476Z,4944.00
2023-02-15T11:18:02.501Z,4948.00
2023-02-15T11:19:02.502Z,4976.00
2023-02-15T11:20:02.511Z,4988.00
2023-02-15T11:21:03.645Z,4952.00
2023-02-15T11:22:02.547Z,4896.00
2023-02-15T11:23:02.543Z,4900.00
2023-02-15T11:24:02.557Z,4916.00
2023-02-15T11:25:02.574Z,4908.00
2023-02-15T11:26:02.572Z,4796.00
2023-02-15T11:27:02.670Z,4724.00
2023-02-15T11:28:02.593Z,4724.00
2023-02-15T11:29:02.608Z,4704.00
2023-02-15T11:30:02.659Z,4684.00
2023-02-15T11:31:02.881Z,4616.00
2023-02-15T11:32:02.788Z,4684.00
2023-02-15T11:33:02.651Z,4620.00
2023-02-15T11:34:02.657Z,4544.00
2023-02-15T11:35:02.673Z,4616.00
2023-02-15T11:36:02.686Z,4676.00
2023-02-15T11:37:02.720Z,4604.00
2023-02-15T11:38:02.697Z,4612.00
2023-02-15T11:39:02.708Z,4632.00
2023-02-15T11:40:02.732Z,4600.00
2023-02-15T11:41:03.058Z,4612.00
2023-02-15T11:42:02.748Z,4636.00
2023-02-15T11:43:02.751Z,4648.00
2023-02-15T11:44:02.768Z,4624.00
2023-02-15T11:45:02.772Z,4628.00
2023-02-15T11:46:02.821Z,4628.00
2023-02-15T11:47:02.802Z,4572.00
2023-02-15T11:48:02.802Z,4520.00
2023-02-15T11:49:02.815Z,4544.00
2023-02-15T11:50:02.820Z,4488.00
2023-02-15T11:51:03.134Z,4540.00
2023-02-15T11:52:02.847Z,4568.00
2023-02-15T11:53:02.853Z,4540.00
2023-02-15T11:54:02.868Z,4572.00
2023-02-15T11:55:02.883Z,4548.00
2023-02-15T11:56:02.892Z,4576.00
2023-02-15T11:57:02.899Z,4580.00
2023-02-15T11:58:02.907Z,4568.00
2023-02-15T11:59:02.937Z,4592.00
2023-02-15T12:00:02.938Z,4576.00
2023-02-15T12:01:03.132Z,4556.00
2023-02-15T12:02:02.948Z,4532.00
2023-02-15T12:03:03.009Z,4520.00
2023-02-15T12:04:02.997Z,4492.00
2023-02-15T12:05:02.983Z,4532.00
2023-02-15T12:06:02.993Z,4492.00
2023-02-15T12:07:03.108Z,4516.00
2023-02-15T12:08:03.035Z,4492.00
2023-02-15T12:09:03.027Z,4468.00
2023-02-15T12:10:03.034Z,4460.00
2023-02-15T12:11:03.294Z,4480.00
2023-02-15T12:12:03.062Z,4456.00
2023-02-15T12:13:03.068Z,4428.00
2023-02-15T12:14:03.077Z,4424.00
2023-02-15T12:15:03.105Z,4420.00
2023-02-15T12:16:03.191Z,4444.00
2023-02-15T12:17:03.120Z,4440.00
2023-02-15T12:18:03.141Z,4468.00
2023-02-15T12:19:03.137Z,4464.00
2023-02-15T12:20:03.144Z,4460.00
2023-02-15T12:21:03.406Z,4456.00
2023-02-15T12:22:03.169Z,4424.00
2023-02-15T12:23:03.199Z,4440.00
2023-02-15T12:24:03.212Z,4464.00
2023-02-15T12:25:03.197Z,4476.00
2023-02-15T12:26:03.209Z,4444.00
2023-02-15T12:27:03.224Z,4408.00
2023-02-15T12:28:03.234Z,4400.00
2023-02-15T12:29:03.252Z,4372.00
2023-02-15T12:30:03.344Z,4332.00
2023-02-15T12:31:03.547Z,4304.00
2023-02-15T12:32:03.390Z,4324.00
2023-02-15T12:33:03.289Z,4380.00
2023-02-15T12:34:03.301Z,4408.00
2023-02-15T12:35:03.312Z,4384.00
2023-02-15T12:36:03.598Z,4400.00
2023-02-15T12:37:03.334Z,4432.00
2023-02-15T12:38:03.345Z,4416.00